createdAt,value
2023-05-07T00:00:35.092Z,3.45
2023-05-07T00:03:20.313Z,3.50
2023-05-07T00:05:47.534Z,3.22
2023-05-07T00:08:15.208Z,3.90
2023-05-07T00:10:42.342Z,3.22
2023-05-07T00:13:09.650Z,3.17
2023-05-07T00:15:36.816Z,3.63
2023-05-07T00:18:04.273Z,3.47
2023-05-07T00:20:31.380Z,3.38
2023-05-07T00:22:58.786Z,2.80
2023-05-07T00:25:25.874Z,3.10
2023-05-07T00:27:53.249Z,3.15
2023-05-07T00:30:20.326Z,2.90
2023-05-07T00:32:49.964Z,3.05
2023-05-07T00:35:17.147Z,3.40
2023-05-07T00:37:44.458Z,2.55
2023-05-07T00:40:11.940Z,2.90
2023-05-07T00:42:39.440Z,2.90
2023-05-07T00:45:08.833Z,2.97
2023-05-07T00:47:36.379Z,2.90
2023-05-07T00:50:04.475Z,3.10
2023-05-07T00:52:31.947Z,2.72
2023-05-07T00:55:00.790Z,2.92
2023-05-07T00:57:28.319Z,3.03
2023-05-07T00:59:56.298Z,3.08
2023-05-07T01:02:24.249Z,3.03
2023-05-07T01:04:51.558Z,2.83
2023-05-07T01:07:19.701Z,2.50
2023-05-07T01:09:46.686Z,3.60
2023-05-07T01:12:15.015Z,2.53
2023-05-07T01:14:42.479Z,2.85
2023-05-07T01:17:10.120Z,2.50
2023-05-07T01:19:37.293Z,3.28
2023-05-07T01:22:09.570Z,2.72
2023-05-07T01:24:46.432Z,2.92
2023-05-07T01:27:16.103Z,2.85
2023-05-07T01:29:43.823Z,3.25
2023-05-07T01:32:12.725Z,2.97
2023-05-07T01:34:40.838Z,2.85
2023-05-07T01:37:08.151Z,2.95
2023-05-07T01:39:40.063Z,2.95
2023-05-07T01:42:07.995Z,2.88
2023-05-07T01:44:35.127Z,2.80
2023-05-07T01:47:06.984Z,3.03
2023-05-07T01:49:34.063Z,2.90
2023-05-07T01:52:01.364Z,2.58
2023-05-07T01:54:31.646Z,2.70
2023-05-07T01:57:00.150Z,2.65
2023-05-07T01:59:27.531Z,2.95
2023-05-07T02:01:54.964Z,2.90
2023-05-07T02:04:22.495Z,3.35
2023-05-07T02:06:49.997Z,2.80
2023-05-07T02:09:18.620Z,3.05
2023-05-07T02:11:48.348Z,2.72
2023-05-07T02:14:16.407Z,2.83
2023-05-07T02:16:44.004Z,3.55
2023-05-07T02:19:13.499Z,3.58
2023-05-07T02:21:40.832Z,4.07
2023-05-07T02:24:08.031Z,2.97
2023-05-07T02:26:35.464Z,3.20
2023-05-07T02:29:02.534Z,3.25
2023-05-07T02:31:29.894Z,3.00
2023-05-07T02:33:56.899Z,3.20
2023-05-07T02:36:24.247Z,3.63
2023-05-07T02:38:57.458Z,3.70
2023-05-07T02:41:24.832Z,2.95
2023-05-07T02:43:52.031Z,3.78
2023-05-07T02:46:19.485Z,3.90
2023-05-07T02:48:52.011Z,3.60
2023-05-07T02:51:24.128Z,3.85
2023-05-07T02:53:54.122Z,3.83
2023-05-07T02:56:22.817Z,3.83
2023-05-07T02:58:49.821Z,3.58
2023-05-07T03:01:19.114Z,3.50
2023-05-07T03:04:06.722Z,3.00
2023-05-07T03:06:34.243Z,2.88
2023-05-07T03:09:01.351Z,4.60
2023-05-07T03:11:29.035Z,3.38
2023-05-07T03:13:56.089Z,3.92
2023-05-07T03:16:23.839Z,3.88
2023-05-07T03:18:51.140Z,4.38
2023-05-07T03:21:18.470Z,4.18
2023-05-07T03:23:45.453Z,4.30
2023-05-07T03:26:12.782Z,3.85
2023-05-07T03:28:39.838Z,3.83
2023-05-07T03:31:11.698Z,3.70
2023-05-07T03:33:57.349Z,4.07
2023-05-07T03:36:27.788Z,4.00
2023-05-07T03:38:56.108Z,4.60
2023-05-07T03:41:27.074Z,4.00
2023-05-07T03:43:54.765Z,4.50
2023-05-07T03:46:22.392Z,3.70
2023-05-07T03:48:49.586Z,4.22
2023-05-07T03:51:17.948Z,4.32
2023-05-07T03:53:44.941Z,3.50
2023-05-07T03:56:12.715Z,3.88
2023-05-07T03:58:41.537Z,3.95
2023-05-07T04:01:11.330Z,3.25
2023-05-07T04:03:38.741Z,4.28
2023-05-07T04:06:06.247Z,3.80
2023-05-07T04:08:35.501Z,4.32
2023-05-07T04:11:04.316Z,3.60
2023-05-07T04:13:33.522Z,3.22
2023-05-07T04:16:05.128Z,3.20
2023-05-07T04:18:35.284Z,3.50
2023-05-07T04:21:02.954Z,3.72
2023-05-07T04:23:30.143Z,3.55
2023-05-07T04:26:00.492Z,3.58
2023-05-07T04:28:33.874Z,3.58
2023-05-07T04:31:01.344Z,3.35
2023-05-07T04:33:29.446Z,4.35
2023-05-07T04:36:03.669Z,3.83
2023-05-07T04:38:32.671Z,3.50
2023-05-07T04:41:06.625Z,3.40
2023-05-07T04:43:37.790Z,3.97
2023-05-07T04:46:05.917Z,3.47
2023-05-07T04:48:33.123Z,3.70
2023-05-07T04:51:01.753Z,3.22
2023-05-07T04:53:28.770Z,3.63
2023-05-07T04:55:58.304Z,3.28
2023-05-07T04:58:32.636Z,3.10
2023-05-07T05:01:01.468Z,3.40
2023-05-07T05:03:29.309Z,3.20
2023-05-07T05:05:58.085Z,3.53
2023-05-07T05:08:28.832Z,3.78
2023-05-07T05:10:56.246Z,3.25
2023-05-07T05:13:23.443Z,4.32
2023-05-07T05:15:51.207Z,3.30
2023-05-07T05:18:18.254Z,3.58
2023-05-07T05:20:46.212Z,3.20
2023-05-07T05:23:13.475Z,2.80
2023-05-07T05:25:41.336Z,3.60
2023-05-07T05:28:11.171Z,3.53
2023-05-07T05:30:38.531Z,2.90
2023-05-07T05:33:05.717Z,3.35
2023-05-07T05:35:33.208Z,3.28
2023-05-07T05:38:04.429Z,3.90
2023-05-07T05:40:31.983Z,3.38
2023-05-07T05:42:59.204Z,3.35
2023-05-07T05:45:27.025Z,3.03
2023-05-07T05:47:54.316Z,3.65
2023-05-07T05:50:21.991Z,3.40
2023-05-07T05:52:49.306Z,3.40
2023-05-07T05:55:19.364Z,3.47
2023-05-07T05:57:47.118Z,3.35
2023-05-07T06:00:15.028Z,3.47
2023-05-07T06:02:48.261Z,3.40
2023-05-07T06:05:23.846Z,3.40
2023-05-07T06:07:53.788Z,3.45
2023-05-07T06:10:21.201Z,3.13
2023-05-07T06:12:48.348Z,3.38
2023-05-07T06:15:16.588Z,3.42
2023-05-07T06:17:44.225Z,3.40
2023-05-07T06:20:12.479Z,3.25
2023-05-07T06:22:40.863Z,3.00
2023-05-07T06:25:09.988Z,3.28
2023-05-07T06:27:38.041Z,3.58
2023-05-07T06:30:06.411Z,4.07
2023-05-07T06:32:33.501Z,3.28
2023-05-07T06:35:01.003Z,3.60
2023-05-07T06:37:28.224Z,3.03
2023-05-07T06:40:03.192Z,3.28
2023-05-07T06:42:32.050Z,3.20
2023-05-07T06:45:07.389Z,3.30
2023-05-07T06:47:34.439Z,3.45
2023-05-07T06:50:02.768Z,3.00
2023-05-07T06:52:32.920Z,3.30
2023-05-07T06:55:01.013Z,2.78
2023-05-07T06:57:28.144Z,3.22
2023-05-07T06:59:55.766Z,2.83
2023-05-07T07:02:23.001Z,3.17
2023-05-07T07:04:51.180Z,3.65
2023-05-07T07:07:18.340Z,3.50
2023-05-07T07:09:47.762Z,3.15
2023-05-07T07:12:17.900Z,2.92
2023-05-07T07:14:45.192Z,3.15
2023-05-07T07:17:13.471Z,3.45
2023-05-07T07:19:41.325Z,3.75
2023-05-07T07:22:09.086Z,2.92
2023-05-07T07:24:36.451Z,2.67
2023-05-07T07:27:06.377Z,3.00
2023-05-07T07:29:35.377Z,2.67
2023-05-07T07:32:02.865Z,2.95
2023-05-07T07:34:31.200Z,2.90
2023-05-07T07:36:58.815Z,2.90
2023-05-07T07:39:26.695Z,2.90
2023-05-07T07:41:56.644Z,3.00
2023-05-07T07:44:24.478Z,3.00
2023-05-07T07:46:57.286Z,2.63
2023-05-07T07:49:26.480Z,2.63
2023-05-07T07:51:53.809Z,2.83
2023-05-07T07:54:22.150Z,3.38
2023-05-07T07:56:49.499Z,2.90
2023-05-07T07:59:19.781Z,2.72
2023-05-07T08:01:50.576Z,3.20
2023-05-07T08:04:19.084Z,3.25
2023-05-07T08:06:46.503Z,3.70
2023-05-07T08:09:14.044Z,3.15
2023-05-07T08:11:42.424Z,3.25
2023-05-07T08:14:10.264Z,3.40
2023-05-07T08:16:37.691Z,3.05
2023-05-07T08:19:05.113Z,2.78
2023-05-07T08:21:34.638Z,2.90
2023-05-07T08:24:02.921Z,3.13
2023-05-07T08:26:30.311Z,3.42
2023-05-07T08:28:57.748Z,3.28
2023-05-07T08:31:25.495Z,2.92
2023-05-07T08:33:52.998Z,3.42
2023-05-07T08:36:20.457Z,2.85
2023-05-07T08:38:47.992Z,3.20
2023-05-07T08:41:15.253Z,3.80
2023-05-07T08:43:50.040Z,3.22
2023-05-07T08:46:22.542Z,3.30
2023-05-07T08:48:52.980Z,3.22
2023-05-07T08:51:22.022Z,2.95
2023-05-07T08:53:51.195Z,2.85
2023-05-07T08:56:24.605Z,3.35
2023-05-07T08:58:57.529Z,3.85
2023-05-07T09:01:25.997Z,3.20
2023-05-07T09:03:54.635Z,3.10
2023-05-07T09:06:23.725Z,3.30
2023-05-07T09:08:53.166Z,2.90
2023-05-07T09:11:22.888Z,3.05
2023-05-07T09:13:56.626Z,3.10
2023-05-07T09:16:26.257Z,3.53
2023-05-07T09:18:55.700Z,3.08
2023-05-07T09:21:24.065Z,3.00
2023-05-07T09:23:55.610Z,3.10
2023-05-07T09:26:27.059Z,3.17
2023-05-07T09:28:54.571Z,3.00
2023-05-07T09:31:24.569Z,3.22
2023-05-07T09:33:54.143Z,4.10
2023-05-07T09:36:21.704Z,2.53
2023-05-07T09:39:01.554Z,2.60
2023-05-07T09:41:35.011Z,3.10
2023-05-07T09:44:15.794Z,3.10
2023-05-07T09:46:53.176Z,2.92
2023-05-07T09:49:27.731Z,2.80
2023-05-07T09:52:02.322Z,3.22
2023-05-07T09:54:33.816Z,2.90
2023-05-07T09:57:04.169Z,2.80
2023-05-07T09:59:37.922Z,2.70
2023-05-07T10:02:11.392Z,2.65
2023-05-07T10:04:47.559Z,3.30
2023-05-07T10:07:17.678Z,2.70
2023-05-07T10:09:49.183Z,2.60
2023-05-07T10:12:25.438Z,2.83
2023-05-07T10:14:55.494Z,2.65
2023-05-07T10:17:24.759Z,2.78
2023-05-07T10:19:54.988Z,2.83
2023-05-07T10:22:25.777Z,2.97
2023-05-07T10:24:55.498Z,2.72
2023-05-07T10:27:23.980Z,2.50
2023-05-07T10:30:23.675Z,2.95
2023-05-07T10:32:54.921Z,2.67
2023-05-07T10:35:35.824Z,2.55
2023-05-07T10:38:05.156Z,2.33
2023-05-07T10:40:35.682Z,2.78
2023-05-07T10:43:10.675Z,2.80
2023-05-07T10:45:44.008Z,2.72
2023-05-07T10:51:22.876Z,2.95
2023-05-07T10:54:12.544Z,2.53
2023-05-07T10:56:48.726Z,2.67
2023-05-07T10:59:28.328Z,2.53
2023-05-07T11:02:00.728Z,3.30
2023-05-07T11:05:21.201Z,3.63
2023-05-07T11:07:56.904Z,3.17
2023-05-07T11:10:50.649Z,3.28
2023-05-07T11:13:51.414Z,2.97
2023-05-07T11:16:45.511Z,2.75
2023-05-07T11:19:49.871Z,2.55
2023-05-07T11:22:41.045Z,3.00
2023-05-07T11:25:20.983Z,3.10
2023-05-07T11:27:54.059Z,2.50
2023-05-07T11:30:21.916Z,2.67
2023-05-07T11:32:49.935Z,2.70
2023-05-07T11:35:18.952Z,2.60
2023-05-07T11:37:49.690Z,2.55
2023-05-07T11:40:17.911Z,3.13
2023-05-07T11:42:45.078Z,3.00
2023-05-07T11:45:12.934Z,2.80
2023-05-07T11:47:42.974Z,3.35
2023-05-07T11:50:12.172Z,2.80
2023-05-07T11:52:40.372Z,3.33
2023-05-07T11:55:09.191Z,2.58
2023-05-07T11:57:36.512Z,2.60
2023-05-07T12:00:05.725Z,2.65
2023-05-07T12:02:43.183Z,2.70
2023-05-07T12:05:11.087Z,2.80
2023-05-07T12:07:38.533Z,2.58
2023-05-07T12:10:07.684Z,3.15
2023-05-07T12:12:47.106Z,2.60
2023-05-07T12:15:17.720Z,2.60
2023-05-07T12:17:45.119Z,2.92
2023-05-07T12:20:13.014Z,2.92
2023-05-07T12:22:40.106Z,2.60
2023-05-07T12:25:08.088Z,2.45
2023-05-07T12:27:39.236Z,2.72
2023-05-07T12:30:07.206Z,2.90
2023-05-07T12:32:37.906Z,2.60
2023-05-07T12:35:07.526Z,2.20
2023-05-07T12:37:36.595Z,2.65
2023-05-07T12:40:11.028Z,2.90
2023-05-07T12:42:39.353Z,2.80
2023-05-07T12:45:14.850Z,2.28
2023-05-07T12:47:48.623Z,2.40
2023-05-07T12:50:17.543Z,2.38
2023-05-07T12:52:46.957Z,2.10
2023-05-07T12:55:16.545Z,2.90
2023-05-07T12:57:46.498Z,2.42
2023-05-07T13:00:14.712Z,2.50
2023-05-07T13:02:45.647Z,2.50
2023-05-07T13:05:13.781Z,2.55
2023-05-07T13:07:41.905Z,2.40
2023-05-07T13:10:09.898Z,2.78
2023-05-07T13:12:37.184Z,2.42
2023-05-07T13:15:04.775Z,2.58
2023-05-07T13:17:32.564Z,2.65
2023-05-07T13:20:00.345Z,2.30
2023-05-07T13:22:27.370Z,2.38
2023-05-07T13:24:54.845Z,2.30
2023-05-07T13:27:21.874Z,2.38
2023-05-07T13:29:49.276Z,2.33
2023-05-07T13:32:16.388Z,2.53
2023-05-07T13:34:43.762Z,2.42
2023-05-07T13:37:11.955Z,2.42
2023-05-07T13:39:39.602Z,2.38
2023-05-07T13:42:06.698Z,2.30
2023-05-07T13:44:34.346Z,2.38
2023-05-07T13:47:01.648Z,2.80
2023-05-07T13:49:29.236Z,2.40
2023-05-07T13:51:56.945Z,2.47
2023-05-07T13:54:25.061Z,2.28
2023-05-07T13:56:52.187Z,2.30
2023-05-07T13:59:19.567Z,2.20
2023-05-07T14:01:46.668Z,2.42
2023-05-07T14:04:13.986Z,2.35
2023-05-07T14:06:41.068Z,2.30
2023-05-07T14:09:08.582Z,2.80
2023-05-07T14:11:36.373Z,2.33
2023-05-07T14:14:03.883Z,2.60
2023-05-07T14:16:31.063Z,2.97
2023-05-07T14:18:58.843Z,2.38
2023-05-07T14:21:26.181Z,2.80
2023-05-07T14:23:53.767Z,2.50
2023-05-07T14:26:21.801Z,2.50
2023-05-07T14:28:49.123Z,2.58
2023-05-07T14:31:16.406Z,2.40
2023-05-07T14:33:44.237Z,3.15
2023-05-07T14:36:11.259Z,2.75
2023-05-07T14:38:39.173Z,2.50
2023-05-07T14:41:06.192Z,2.40
2023-05-07T14:43:33.494Z,2.47
2023-05-07T14:46:00.679Z,3.30
2023-05-07T14:48:28.141Z,3.13
2023-05-07T14:50:55.411Z,2.85
2023-05-07T14:53:23.109Z,2.92
2023-05-07T14:55:50.288Z,2.88
2023-05-07T14:58:17.684Z,3.05
2023-05-07T15:00:44.816Z,3.60
2023-05-07T15:03:12.609Z,3.40
2023-05-07T15:05:42.861Z,3.70
2023-05-07T15:08:11.125Z,3.58
2023-05-07T15:10:42.207Z,2.80
2023-05-07T15:13:15.318Z,3.38
2023-05-07T15:15:46.791Z,2.50
2023-05-07T15:18:14.612Z,2.50
2023-05-07T15:20:42.466Z,3.10
2023-05-07T15:23:11.046Z,2.50
2023-05-07T15:25:39.162Z,2.83
2023-05-07T15:28:06.703Z,3.15
2023-05-07T15:30:34.318Z,3.15
2023-05-07T15:33:02.742Z,2.97
2023-05-07T15:35:29.893Z,3.45
2023-05-07T15:37:57.474Z,3.20
2023-05-07T15:40:24.620Z,3.70
2023-05-07T15:42:57.050Z,3.08
2023-05-07T15:45:25.189Z,2.50
2023-05-07T15:47:52.693Z,2.97
2023-05-07T15:50:19.943Z,3.00
2023-05-07T15:52:47.557Z,2.95
2023-05-07T15:55:15.159Z,2.90
2023-05-07T15:57:42.496Z,3.13
2023-05-07T16:00:12.431Z,3.75
2023-05-07T16:02:40.350Z,4.03
2023-05-07T16:05:12.043Z,3.50
2023-05-07T16:07:41.015Z,3.05
2023-05-07T16:10:09.777Z,3.15
2023-05-07T16:12:37.278Z,3.42
2023-05-07T16:15:04.960Z,3.85
2023-05-07T16:17:32.338Z,3.40
2023-05-07T16:19:59.516Z,3.15
2023-05-07T16:22:26.999Z,3.05
2023-05-07T16:24:54.006Z,2.97
2023-05-07T16:27:21.649Z,2.70
2023-05-07T16:29:48.650Z,8.15
2023-05-07T16:32:16.183Z,8.07
2023-05-07T16:34:43.253Z,3.50
2023-05-07T16:37:10.775Z,3.47
2023-05-07T16:39:38.699Z,3.17
2023-05-07T16:42:06.259Z,3.15
2023-05-07T16:44:33.359Z,3.20
2023-05-07T16:47:00.649Z,2.90
2023-05-07T16:49:27.892Z,2.50
2023-05-07T16:51:55.399Z,3.40
2023-05-07T16:54:22.422Z,4.82
2023-05-07T16:56:50.759Z,3.40
2023-05-07T16:59:18.031Z,3.97
2023-05-07T17:01:45.583Z,3.90
2023-05-07T17:04:14.390Z,3.33
2023-05-07T17:06:41.770Z,3.67
2023-05-07T17:09:09.452Z,3.03
2023-05-07T17:11:36.740Z,3.53
2023-05-07T17:14:05.481Z,3.30
2023-05-07T17:16:33.338Z,3.35
2023-05-07T17:19:00.440Z,3.75
2023-05-07T17:21:27.910Z,3.75
2023-05-07T17:23:54.888Z,3.78
2023-05-07T17:26:22.410Z,3.35
2023-05-07T17:28:49.481Z,3.53
2023-05-07T17:31:17.004Z,3.22
2023-05-07T17:33:44.150Z,4.07
2023-05-07T17:36:11.597Z,4.22
2023-05-07T17:38:38.620Z,4.40
2023-05-07T17:41:06.261Z,4.75
2023-05-07T17:43:33.415Z,4.15
2023-05-07T17:46:00.834Z,4.75
2023-05-07T17:48:27.812Z,4.53
2023-05-07T17:51:01.730Z,3.80
2023-05-07T17:53:28.751Z,4.28
2023-05-07T17:55:56.164Z,4.15
2023-05-07T17:58:25.540Z,3.92
2023-05-07T18:00:55.495Z,3.95
2023-05-07T18:03:25.657Z,3.72
2023-05-07T18:05:53.226Z,3.70
2023-05-07T18:08:20.829Z,3.40
2023-05-07T18:10:48.158Z,3.53
2023-05-07T18:13:15.191Z,3.78
2023-05-07T18:15:42.649Z,3.50
2023-05-07T18:18:09.787Z,4.80
2023-05-07T18:20:37.226Z,5.25
2023-05-07T18:23:04.787Z,7.10
2023-05-07T18:25:32.100Z,9.90
2023-05-07T18:27:59.201Z,14.25
2023-05-07T18:30:26.950Z,18.45
2023-05-07T18:32:53.978Z,24.27
2023-05-07T18:35:21.800Z,34.40
2023-05-07T18:37:50.995Z,36.22
2023-05-07T18:40:18.437Z,34.45
2023-05-07T18:42:45.648Z,31.55
2023-05-07T18:45:13.055Z,28.63
2023-05-07T18:47:40.372Z,19.60
2023-05-07T18:50:08.391Z,19.17
2023-05-07T18:52:36.154Z,15.57
2023-05-07T18:55:04.623Z,11.38
2023-05-07T18:57:32.051Z,10.60
2023-05-07T18:59:59.371Z,7.18
2023-05-07T19:02:26.447Z,7.18
2023-05-07T19:04:53.846Z,6.43
2023-05-07T19:07:20.910Z,5.18
2023-05-07T19:10:01.045Z,5.20
2023-05-07T19:12:31.796Z,4.95
2023-05-07T19:14:59.100Z,6.25
2023-05-07T19:17:26.402Z,5.20
2023-05-07T19:19:53.750Z,4.60
2023-05-07T19:22:20.812Z,4.72
2023-05-07T19:24:48.285Z,5.47
2023-05-07T19:27:15.413Z,5.63
2023-05-07T19:29:43.392Z,5.43
2023-05-07T19:32:11.075Z,5.18
2023-05-07T19:34:38.654Z,5.70
2023-05-07T19:37:05.857Z,4.97
2023-05-07T19:39:33.212Z,5.57
2023-05-07T19:42:01.600Z,5.90
2023-05-07T19:44:29.281Z,6.47
2023-05-07T19:46:56.366Z,6.15
2023-05-07T19:49:23.698Z,5.57
2023-05-07T19:51:51.222Z,5.85
2023-05-07T19:54:18.522Z,5.72
2023-05-07T19:56:45.653Z,5.57
2023-05-07T19:59:13.219Z,4.75
2023-05-07T20:01:40.332Z,5.70
2023-05-07T20:04:08.112Z,5.25
2023-05-07T20:06:35.339Z,4.68
2023-05-07T20:09:02.691Z,8.77
2023-05-07T20:11:29.783Z,6.00
2023-05-07T20:13:57.210Z,4.93
2023-05-07T20:16:24.286Z,5.47
2023-05-07T20:18:52.054Z,5.57
2023-05-07T20:21:19.209Z,7.35
2023-05-07T20:23:46.633Z,7.78
2023-05-07T20:26:14.151Z,8.57
2023-05-07T20:28:41.408Z,8.57
2023-05-07T20:31:08.452Z,9.05
2023-05-07T20:33:35.853Z,8.07
2023-05-07T20:36:03.565Z,8.05
2023-05-07T20:38:33.888Z,8.63
2023-05-07T20:41:11.803Z,8.32
2023-05-07T20:43:39.392Z,7.60
2023-05-07T20:46:07.796Z,7.85
2023-05-07T20:48:35.725Z,6.47
2023-05-07T20:51:03.544Z,7.20
2023-05-07T20:53:31.744Z,7.10
2023-05-07T20:55:59.725Z,6.07
2023-05-07T20:58:28.781Z,6.35
2023-05-07T21:00:56.452Z,6.82
2023-05-07T21:03:24.316Z,5.38
2023-05-07T21:05:52.656Z,6.22
2023-05-07T21:08:20.353Z,5.35
2023-05-07T21:10:48.081Z,6.38
2023-05-07T21:13:15.921Z,5.68
2023-05-07T21:15:43.129Z,5.78
2023-05-07T21:18:11.458Z,6.70
2023-05-07T21:20:38.714Z,6.68
2023-05-07T21:23:17.316Z,6.60
2023-05-07T21:25:47.427Z,6.15
2023-05-07T21:28:14.779Z,6.20
2023-05-07T21:30:41.858Z,6.10
2023-05-07T21:33:09.240Z,6.18
2023-05-07T21:35:36.844Z,10.57
2023-05-07T21:38:04.345Z,12.70
2023-05-07T21:40:31.673Z,9.32
2023-05-07T21:43:00.434Z,7.03
2023-05-07T21:45:27.591Z,5.88
2023-05-07T21:47:55.506Z,6.30
2023-05-07T21:50:22.929Z,7.18
2023-05-07T21:52:50.395Z,17.35
2023-05-07T21:55:18.404Z,17.88
2023-05-07T21:57:53.728Z,13.88
2023-05-07T22:00:25.305Z,13.68
2023-05-07T22:02:52.673Z,9.38
2023-05-07T22:05:20.032Z,7.80
2023-05-07T22:07:47.357Z,7.28
2023-05-07T22:10:14.548Z,7.78
2023-05-07T22:12:41.978Z,6.80
2023-05-07T22:15:09.419Z,7.80
2023-05-07T22:17:36.740Z,7.82
2023-05-07T22:20:11.170Z,11.35
2023-05-07T22:22:55.911Z,10.45
2023-05-07T22:25:24.479Z,8.40
2023-05-07T22:27:52.364Z,7.60
2023-05-07T22:30:19.433Z,6.97
2023-05-07T22:32:46.783Z,7.35
2023-05-07T22:35:14.393Z,7.50
2023-05-07T22:37:41.673Z,8.18
2023-05-07T22:40:09.577Z,6.85
2023-05-07T22:42:37.198Z,7.30
2023-05-07T22:45:04.465Z,7.68
2023-05-07T22:47:31.950Z,7.70
2023-05-07T22:49:59.095Z,7.60
2023-05-07T22:52:26.396Z,8.68
2023-05-07T22:54:53.469Z,10.55
2023-05-07T22:57:20.940Z,9.40
2023-05-07T22:59:48.011Z,9.07
2023-05-07T23:02:15.410Z,7.38
2023-05-07T23:04:42.637Z,9.13
2023-05-07T23:07:10.026Z,8.30
2023-05-07T23:09:37.043Z,9.27
2023-05-07T23:12:05.002Z,8.10
2023-05-07T23:14:32.007Z,7.78
2023-05-07T23:16:59.724Z,8.68
2023-05-07T23:19:26.744Z,7.90
2023-05-07T23:21:54.126Z,8.32
2023-05-07T23:24:21.232Z,7.68
2023-05-07T23:26:48.522Z,11.45
2023-05-07T23:29:15.502Z,13.73
2023-05-07T23:31:43.104Z,11.32
2023-05-07T23:34:10.105Z,9.27
2023-05-07T23:36:37.376Z,9.18
2023-05-07T23:39:04.390Z,9.35
2023-05-07T23:41:31.971Z,8.20
2023-05-07T23:43:59.061Z,8.48
2023-05-07T23:46:26.901Z,8.35
2023-05-07T23:48:54.012Z,9.77
2023-05-07T23:51:21.276Z,9.00
2023-05-07T23:53:48.298Z,10.80
2023-05-07T23:56:16.223Z,10.07
2023-05-07T23:58:43.260Z,8.88
